Butler, PA

2:37 PM EDT on October 22, 2017 (GMT -0400)
Butler County-Scholter

Weather History for KBTP - November, 2011

Change the Weather History Date:

Tuesday, November 29, 2011

  Actual Average Record
Temperature  
Mean Temperature 48 °F -  
Max Temperature 60 °F 43 °F 72 °F (1990)
Min Temperature 37 °F 29 °F 14 °F (1967)
Degree Days  
Heating Degree Days 16    
Moisture  
Dew Point 45 °F    
Average Humidity 81    
Maximum Humidity 94    
Minimum Humidity 66    
Precipitation  
Precipitation 0.43 in - - ()
Sea Level Pressure  
Sea Level Pressure 29.69 in    
Wind  
Wind Speed 10 mph (SE)    
Max Wind Speed 23 mph    
Max Gust Speed 34 mph    
Visibility 10 miles    
Events      
Averages and records for this station are not official NWS values.
T = Trace of Precipitation, MM = Missing Value Source: NWS Daily Summary

Daily Weather History Graph

Daily Weather History Graph

Search for Another Location

Airport or City:

Trip Planner

Search our weather history database for the weather conditions in past years. The results will help you decide how hot, cold, wet, or windy it might be!

Date:

Astronomy

Nov. 29, 2011 Rise Set
Actual Time 7:22 AM EST 4:53 PM EST
Civil Twilight 6:51 AM EST 5:23 PM EST
Nautical Twilight 6:18 AM EST 5:57 PM EST
Astronomical Twilight 5:45 AM EST 6:30 PM EST
Moon 11:07 AM EST (11/29) 9:45 PM EST (11/29)
Length of Visible Light 10h 31m
Length of Day
9h 31m
Waxing Crescent, 24% of the Moon is Illuminated
Nov 29
Waxing Crescent
Dec 2
First Quarter
Dec 10
Full
Dec 17
Last Quarter
Dec 24
New

Hourly Weather History & Observations

Time (EST) Temp. Windchill Dew Point Humidity Pressure Visibility Wind Dir Wind Speed Gust Speed Precip Events Conditions
12:15 AM 53.6 °F - 48.2 °F 82% 29.87 in 10.0 mi NNE 5.8 mph - N/A   Mostly Cloudy
12:35 AM 53.6 °F - 48.2 °F 82% 29.86 in 10.0 mi NE 6.9 mph - N/A   Mostly Cloudy
12:55 AM 53.6 °F - 50.0 °F 88% 29.85 in 10.0 mi ENE 8.1 mph - N/A   Overcast
1:15 AM 55.4 °F - 50.0 °F 82% 29.84 in 10.0 mi ENE 8.1 mph - N/A   Overcast
1:35 AM 55.4 °F - 50.0 °F 82% 29.82 in 10.0 mi ENE 9.2 mph - N/A   Overcast
1:55 AM 55.4 °F - 50.0 °F 82% 29.82 in 10.0 mi ENE 8.1 mph - N/A   Mostly Cloudy
2:15 AM 55.4 °F - 50.0 °F 82% 29.82 in 10.0 mi ENE 9.2 mph - N/A   Overcast
2:35 AM 55.4 °F - 51.8 °F 88% 29.80 in 10.0 mi ENE 9.2 mph - N/A   Mostly Cloudy
2:55 AM 55.4 °F - 51.8 °F 88% 29.79 in 10.0 mi ENE 8.1 mph - N/A   Mostly Cloudy
3:15 AM 55.4 °F - 51.8 °F 88% 29.78 in 10.0 mi ENE 9.2 mph - N/A   Overcast
3:35 AM 55.4 °F - 51.8 °F 88% 29.76 in 10.0 mi East 9.2 mph - 0.01 in   Overcast
3:55 AM 55.4 °F - 51.8 °F 88% 29.76 in 10.0 mi East 9.2 mph - 0.01 in   Overcast
4:15 AM 57.2 °F - 51.8 °F 82% 29.75 in 10.0 mi East 10.4 mph - 0.02 in   Overcast
4:35 AM 55.4 °F - 51.8 °F 88% 29.74 in 10.0 mi East 9.2 mph - 0.03 in   Overcast
4:55 AM 57.2 °F - 51.8 °F 82% 29.74 in 10.0 mi ESE 9.2 mph - 0.04 in   Overcast
5:15 AM 57.2 °F - 51.8 °F 82% 29.73 in 10.0 mi East 8.1 mph - 0.01 in   Overcast
5:35 AM 55.4 °F - 51.8 °F 88% 29.72 in 10.0 mi East 6.9 mph - 0.01 in   Mostly Cloudy
5:55 AM 57.2 °F - 51.8 °F 82% 29.73 in 10.0 mi East 9.2 mph - 0.02 in   Overcast
6:15 AM 57.2 °F - 51.8 °F 82% 29.73 in 10.0 mi East 10.4 mph - 0.01 in   Overcast
6:35 AM 57.2 °F - 51.8 °F 82% 29.72 in 10.0 mi ESE 11.5 mph - 0.03 in   Overcast
6:55 AM 57.2 °F - 51.8 °F 82% 29.72 in 10.0 mi East 10.4 mph - 0.05 in   Overcast
7:35 AM 55.4 °F - 51.8 °F 88% 29.70 in 9.0 mi East 12.7 mph - 0.07 in   Overcast
7:55 AM 55.4 °F - 51.8 °F 88% 29.68 in 9.0 mi East 16.1 mph 20.7 mph 0.11 in   Overcast
8:15 AM 55.4 °F - 53.6 °F 94% 29.67 in 9.0 mi East 16.1 mph 21.9 mph 0.03 in   Overcast
8:35 AM 55.4 °F - 51.8 °F 88% 29.66 in 10.0 mi East 18.4 mph - 0.04 in   Mostly Cloudy
8:55 AM 55.4 °F - 53.6 °F 94% 29.65 in 10.0 mi East 19.6 mph 25.3 mph 0.04 in   Mostly Cloudy
9:15 AM 57.2 °F - 53.6 °F 88% 29.65 in 10.0 mi East 12.7 mph 23.0 mph N/A   Mostly Cloudy
9:35 AM 57.2 °F - 53.6 °F 88% 29.65 in 10.0 mi East 13.8 mph 21.9 mph N/A   Overcast
9:55 AM 57.2 °F - 53.6 °F 88% 29.64 in 10.0 mi East 12.7 mph 20.7 mph 0.01 in   Overcast
10:15 AM 57.2 °F - 53.6 °F 88% 29.65 in 10.0 mi East 11.5 mph - 0.02 in   Overcast
10:35 AM 57.2 °F - 53.6 °F 88% 29.64 in 10.0 mi ESE 10.4 mph - 0.02 in   Overcast
10:55 AM 57.2 °F - 53.6 °F 88% 29.63 in 10.0 mi East 11.5 mph - 0.04 in   Overcast
11:35 AM 57.2 °F - 53.6 °F 88% 29.63 in 5.0 mi ESE 9.2 mph - 0.08 in   Overcast
11:55 AM 57.2 °F - 53.6 °F 88% 29.54 in 10.0 mi ENE 13.8 mph - 0.11 in   Mostly Cloudy
12:15 PM 57.2 °F - 55.4 °F 94% 29.55 in 10.0 mi ESE 10.4 mph - N/A   Mostly Cloudy
12:35 PM 59.0 °F - 55.4 °F 88% 29.56 in 10.0 mi ESE 11.5 mph 18.4 mph N/A   Mostly Cloudy
12:55 PM 60.8 °F - 55.4 °F 82% 29.56 in 10.0 mi SSE 11.5 mph 17.3 mph N/A   Partly Cloudy
1:35 PM 50.0 °F - 44.6 °F 82% 29.61 in 10.0 mi SW 20.7 mph 34.5 mph N/A   Overcast
1:55 PM 46.4 °F 39.0 °F 39.2 °F 76% 29.62 in 10.0 mi SW 19.6 mph 27.6 mph N/A   Overcast
2:55 PM 44.6 °F 35.9 °F 35.6 °F 71% 29.63 in 10.0 mi SW 23.0 mph 29.9 mph N/A   Overcast
3:15 PM 44.6 °F 36.9 °F 35.6 °F 71% 29.63 in 10.0 mi SW 18.4 mph 23.0 mph N/A   Overcast
3:35 PM 44.6 °F 38.8 °F 35.6 °F 71% 29.63 in 10.0 mi SW 11.5 mph - N/A   Mostly Cloudy
3:55 PM 44.6 °F 37.8 °F 33.8 °F 66% 29.63 in 10.0 mi SW 15.0 mph - N/A   Mostly Cloudy
4:15 PM 44.6 °F 37.8 °F 33.8 °F 66% 29.64 in 10.0 mi SW 15.0 mph - N/A   Mostly Cloudy
4:35 PM 42.8 °F 37.0 °F 33.8 °F 70% 29.65 in 10.0 mi SW 10.4 mph 17.3 mph N/A   Mostly Cloudy
4:55 PM 42.8 °F 37.0 °F 33.8 °F 70% 29.66 in 10.0 mi SW 10.4 mph - N/A   Mostly Cloudy
5:15 PM 42.8 °F 35.4 °F 32.0 °F 66% 29.66 in 10.0 mi SW 15.0 mph 18.4 mph N/A   Overcast
5:35 PM 42.8 °F 37.0 °F 32.0 °F 66% 29.66 in 10.0 mi SW 10.4 mph - N/A   Overcast
6:15 PM 39.2 °F 35.0 °F 32.0 °F 75% 29.66 in 10.0 mi SSW 5.8 mph - N/A   Clear
6:35 PM 39.2 °F 35.0 °F 32.0 °F 75% 29.66 in 10.0 mi SSW 5.8 mph - N/A   Clear
6:55 PM 39.2 °F 35.0 °F 32.0 °F 75% 29.66 in 10.0 mi SSW 5.8 mph - N/A   Clear
7:15 PM 39.2 °F 35.9 °F 32.0 °F 75% 29.67 in 10.0 mi SSW 4.6 mph - N/A   Clear
7:35 PM 39.2 °F 35.9 °F 30.2 °F 70% 29.67 in 10.0 mi SW 4.6 mph - N/A   Clear
7:55 PM 37.4 °F 33.8 °F 30.2 °F 75% 29.66 in 10.0 mi SSW 4.6 mph - N/A   Clear
8:35 PM 37.4 °F 32.8 °F 32.0 °F 81% 29.66 in 10.0 mi SSW 5.8 mph - N/A   Mostly Cloudy
8:55 PM 39.2 °F 35.0 °F 32.0 °F 75% 29.65 in 10.0 mi SSW 5.8 mph - N/A   Scattered Clouds
9:15 PM 39.2 °F 34.2 °F 32.0 °F 75% 29.64 in 10.0 mi SSW 6.9 mph - N/A   Scattered Clouds
9:35 PM 39.2 °F 34.2 °F 32.0 °F 75% 29.63 in 10.0 mi SW 6.9 mph - N/A   Mostly Cloudy
9:55 PM 39.2 °F 32.5 °F 32.0 °F 75% 29.62 in 10.0 mi SW 10.4 mph - N/A   Mostly Cloudy
10:15 PM 39.2 °F 33.0 °F 30.2 °F 70% 29.62 in 10.0 mi SW 9.2 mph - N/A   Partly Cloudy
10:35 PM 39.2 °F 31.6 °F 30.2 °F 70% 29.62 in 10.0 mi SW 12.7 mph 18.4 mph N/A   Scattered Clouds
11:15 PM 39.2 °F 31.2 °F 30.2 °F 70% 29.62 in 10.0 mi SW 13.8 mph 20.7 mph N/A   Overcast
11:35 PM 39.2 °F 31.2 °F 30.2 °F 70% 29.62 in 10.0 mi SW 13.8 mph 19.6 mph N/A   Overcast
11:55 PM 39.2 °F 31.2 °F 30.2 °F 70% 29.62 in 10.0 mi SW 13.8 mph 21.9 mph N/A   Overcast